createdAt,value
2018-08-20T00:04:50.760Z,94.60
2018-08-20T00:09:46.089Z,94.80
2018-08-20T00:14:40.549Z,94.80
2018-08-20T00:19:35.047Z,94.40
2018-08-20T00:24:29.493Z,94.80
2018-08-20T00:29:23.964Z,94.50
2018-08-20T00:34:18.421Z,94.60
2018-08-20T00:39:12.958Z,94.70
2018-08-20T00:44:13.245Z,95.30
2018-08-20T00:49:07.708Z,95.20
2018-08-20T00:54:02.168Z,95.40
2018-08-20T00:58:56.690Z,95.50
2018-08-20T01:03:51.113Z,95.90
2018-08-20T01:08:45.537Z,96.30
2018-08-20T01:13:40.013Z,96.70
2018-08-20T01:18:34.413Z,97.40
2018-08-20T01:23:28.897Z,97.70
2018-08-20T01:28:23.358Z,98.20
2018-08-20T01:33:17.855Z,98.80
2018-08-20T01:38:12.337Z,99.30
2018-08-20T01:43:06.861Z,99.50
2018-08-20T01:48:01.384Z,99.50
2018-08-20T01:52:55.872Z,99.70
2018-08-20T01:57:50.336Z,99.90
2018-08-20T02:02:48.856Z,99.90
2018-08-20T02:07:43.276Z,99.90
2018-08-20T02:12:37.809Z,99.90
2018-08-20T02:17:32.241Z,99.90
2018-08-20T02:22:26.678Z,99.90
2018-08-20T02:27:21.178Z,99.90
2018-08-20T02:32:15.661Z,99.90
2018-08-20T02:37:10.149Z,99.90
2018-08-20T02:42:04.669Z,99.90
2018-08-20T02:46:59.209Z,99.90
2018-08-20T02:51:53.688Z,99.90
2018-08-20T02:56:48.156Z,99.90
2018-08-20T03:01:42.679Z,99.90
2018-08-20T03:06:38.068Z,99.90
2018-08-20T03:11:32.565Z,99.90
2018-08-20T03:16:27.063Z,99.90
2018-08-20T03:21:21.585Z,99.90
2018-08-20T03:26:16.112Z,99.90
2018-08-20T03:31:10.568Z,99.90
2018-08-20T03:36:05.251Z,99.90
2018-08-20T03:40:59.729Z,99.90
2018-08-20T03:45:54.237Z,99.90
2018-08-20T03:50:48.712Z,99.90
2018-08-20T03:55:43.143Z,99.90
2018-08-20T04:00:37.608Z,99.90
2018-08-20T04:05:32.095Z,99.90
2018-08-20T04:10:26.675Z,99.90
2018-08-20T04:15:21.146Z,99.90
2018-08-20T04:20:15.695Z,99.90
2018-08-20T04:25:10.236Z,99.90
2018-08-20T04:30:05.229Z,99.90
2018-08-20T04:34:59.672Z,99.90
2018-08-20T04:39:54.133Z,99.90
2018-08-20T04:44:48.692Z,99.90
2018-08-20T04:49:43.213Z,99.90
2018-08-20T04:54:37.688Z,99.90
2018-08-20T04:59:32.196Z,99.90
2018-08-20T05:04:26.770Z,99.90
2018-08-20T05:09:21.253Z,99.90
2018-08-20T05:14:15.757Z,99.90
2018-08-20T05:19:10.320Z,99.90
2018-08-20T05:24:04.876Z,99.90
2018-08-20T05:28:59.774Z,99.90
2018-08-20T05:33:54.696Z,99.90
2018-08-20T05:38:49.140Z,99.90
2018-08-20T05:43:43.756Z,99.10
2018-08-20T05:48:38.170Z,97.60
2018-08-20T05:53:32.586Z,95.30
2018-08-20T05:58:26.987Z,93.10
2018-08-20T06:03:21.428Z,92.20
2018-08-20T06:08:15.927Z,90.90
2018-08-20T06:13:10.341Z,90.60
2018-08-20T06:18:04.868Z,88.30
2018-08-20T06:22:59.393Z,86.80
2018-08-20T06:27:53.952Z,84.80
2018-08-20T06:32:48.384Z,83.10
2018-08-20T06:37:42.936Z,82.70
2018-08-20T06:42:37.380Z,80.90
2018-08-20T06:47:31.841Z,83.90
2018-08-20T06:52:27.289Z,84.20
2018-08-20T06:57:21.693Z,84.10
2018-08-20T07:02:16.537Z,83.50
2018-08-20T07:07:11.396Z,83.10
2018-08-20T07:12:07.493Z,82.50
2018-08-20T07:17:02.125Z,81.80
2018-08-20T07:21:57.430Z,82.90
2018-08-20T07:26:52.025Z,82.80
2018-08-20T07:31:46.465Z,83.00
2018-08-20T07:36:40.982Z,82.50
2018-08-20T07:41:35.460Z,83.20
2018-08-20T07:46:29.912Z,83.00
2018-08-20T07:51:26.699Z,82.80
2018-08-20T07:56:21.245Z,81.60
2018-08-20T08:01:15.703Z,83.00
2018-08-20T08:06:13.014Z,82.80
2018-08-20T08:11:09.080Z,82.10
2018-08-20T08:16:03.651Z,81.50
2018-08-20T08:20:58.168Z,81.00
2018-08-20T08:25:54.711Z,81.00
2018-08-20T08:30:50.575Z,80.40
2018-08-20T08:35:45.228Z,80.20
2018-08-20T08:40:39.750Z,80.90
2018-08-20T08:45:34.195Z,81.80
2018-08-20T08:50:31.744Z,81.90
2018-08-20T08:55:26.301Z,81.00
2018-08-20T09:00:21.806Z,80.00
2018-08-20T09:05:16.405Z,80.90
2018-08-20T09:10:11.951Z,80.10
2018-08-20T09:15:15.213Z,79.70
2018-08-20T09:20:13.236Z,80.70
2018-08-20T09:25:09.421Z,80.20
2018-08-20T09:30:06.167Z,78.90
2018-08-20T09:35:00.563Z,78.30
2018-08-20T09:39:57.028Z,78.70
2018-08-20T09:44:51.789Z,78.40
2018-08-20T09:49:46.192Z,77.60
2018-08-20T09:54:40.910Z,77.00
2018-08-20T09:59:35.689Z,75.90
2018-08-20T10:04:31.466Z,75.40
2018-08-20T10:09:26.070Z,75.80
2018-08-20T10:14:21.634Z,74.60
2018-08-20T10:19:16.218Z,74.00
2018-08-20T10:24:10.893Z,73.40
2018-08-20T10:29:06.173Z,73.10
2018-08-20T10:34:02.127Z,71.20
2018-08-20T10:38:56.877Z,71.00
2018-08-20T10:43:51.401Z,71.20
2018-08-20T10:48:46.036Z,69.10
2018-08-20T10:53:40.467Z,68.50
2018-08-20T10:58:34.988Z,67.70
2018-08-20T11:03:29.620Z,68.30
2018-08-20T11:08:24.080Z,67.40
2018-08-20T11:13:19.726Z,67.20
2018-08-20T11:18:14.273Z,67.50
2018-08-20T11:23:09.066Z,67.50
2018-08-20T11:28:06.619Z,67.50
2018-08-20T11:33:05.475Z,67.00
2018-08-20T11:38:03.611Z,67.50
2018-08-20T11:42:59.095Z,67.10
2018-08-20T11:47:54.000Z,65.50
2018-08-20T11:52:48.912Z,67.10
2018-08-20T11:57:43.404Z,68.00
2018-08-20T12:02:38.923Z,68.20
2018-08-20T12:07:33.585Z,67.50
2018-08-20T12:12:28.100Z,66.50
2018-08-20T12:17:22.622Z,67.90
2018-08-20T12:22:17.186Z,68.20
2018-08-20T12:27:11.986Z,67.80
2018-08-20T12:32:06.458Z,67.60
2018-08-20T12:37:01.099Z,67.40
2018-08-20T12:41:55.806Z,67.80
2018-08-20T12:46:58.684Z,67.70
2018-08-20T12:51:53.264Z,68.00
2018-08-20T12:56:48.354Z,68.00
2018-08-20T13:01:42.774Z,67.80
2018-08-20T13:06:37.280Z,67.40
2018-08-20T13:11:31.856Z,67.60
2018-08-20T13:16:38.662Z,67.50
2018-08-20T13:21:38.215Z,67.40
2018-08-20T13:26:33.317Z,67.30
2018-08-20T13:31:28.548Z,65.90
2018-08-20T13:36:23.120Z,65.90
2018-08-20T13:41:18.270Z,63.50
2018-08-20T13:46:12.911Z,64.10
2018-08-20T13:51:09.728Z,64.40
2018-08-20T13:56:04.856Z,65.90
2018-08-20T14:00:59.410Z,64.50
2018-08-20T14:05:53.852Z,62.40
2018-08-20T14:10:48.304Z,62.20
2018-08-20T14:15:42.970Z,61.40
2018-08-20T14:20:37.459Z,61.70
2018-08-20T14:25:32.065Z,61.20
2018-08-20T14:30:27.419Z,61.70
2018-08-20T14:35:22.069Z,60.70
2018-08-20T14:40:18.540Z,61.50
2018-08-20T14:45:15.152Z,62.10
2018-08-20T14:50:12.709Z,61.80
2018-08-20T14:55:07.789Z,60.30
2018-08-20T15:00:03.396Z,61.20
2018-08-20T15:04:59.169Z,60.80
2018-08-20T15:09:56.673Z,60.00
2018-08-20T15:14:52.506Z,59.80
2018-08-20T15:19:47.190Z,59.90
2018-08-20T15:24:48.790Z,60.00
2018-08-20T15:29:53.541Z,59.80
2018-08-20T15:34:48.920Z,60.00
2018-08-20T15:39:49.130Z,59.00
2018-08-20T15:44:44.756Z,58.40
2018-08-20T15:49:39.702Z,58.90
2018-08-20T15:54:34.976Z,59.20
2018-08-20T15:59:30.466Z,59.40
2018-08-20T16:04:25.535Z,58.60
2018-08-20T16:09:20.684Z,59.10
2018-08-20T16:14:15.514Z,59.10
2018-08-20T16:19:10.213Z,58.60
2018-08-20T16:24:04.874Z,58.40
2018-08-20T16:28:59.604Z,58.30
2018-08-20T16:33:54.573Z,58.20
2018-08-20T16:38:49.144Z,57.80
2018-08-20T16:43:43.853Z,58.50
2018-08-20T16:48:38.550Z,58.00
2018-08-20T16:53:33.350Z,58.90
2018-08-20T16:58:28.286Z,58.40
2018-08-20T17:03:23.105Z,58.30
2018-08-20T17:08:35.368Z,58.90
2018-08-20T17:13:30.662Z,58.80
2018-08-20T17:18:25.464Z,58.60
2018-08-20T17:23:22.092Z,58.80
2018-08-20T17:28:23.777Z,60.00
2018-08-20T17:33:18.417Z,59.40
2018-08-20T17:38:13.282Z,59.80
2018-08-20T17:43:08.786Z,60.20
2018-08-20T17:48:03.554Z,60.10
2018-08-20T17:52:59.773Z,63.20
2018-08-20T17:57:54.583Z,64.40
2018-08-20T18:02:49.293Z,65.90
2018-08-20T18:07:44.053Z,67.20
2018-08-20T18:12:39.447Z,68.90
2018-08-20T18:17:34.125Z,70.60
2018-08-20T18:22:28.673Z,71.50
2018-08-20T18:27:23.612Z,73.00
2018-08-20T18:32:18.541Z,74.00
2018-08-20T18:37:13.319Z,75.10
2018-08-20T18:42:10.002Z,76.20
2018-08-20T18:47:04.861Z,77.00
2018-08-20T18:52:06.266Z,78.30
2018-08-20T18:57:05.148Z,78.20
2018-08-20T19:01:59.728Z,78.50
2018-08-20T19:06:58.873Z,80.20
2018-08-20T19:11:53.562Z,81.00
2018-08-20T19:16:48.342Z,81.10
2018-08-20T19:21:43.502Z,81.10
2018-08-20T19:26:38.221Z,81.70
2018-08-20T19:31:33.149Z,82.40
2018-08-20T19:36:27.693Z,82.90
2018-08-20T19:41:22.188Z,86.70
2018-08-20T19:46:26.371Z,84.60
2018-08-20T19:51:21.104Z,84.20
2018-08-20T19:56:15.928Z,84.50
2018-08-20T20:01:14.301Z,85.20
2018-08-20T20:06:09.101Z,84.60
2018-08-20T20:11:03.798Z,84.80
2018-08-20T20:15:59.612Z,85.40
2018-08-20T20:20:54.184Z,85.90
2018-08-20T20:25:48.765Z,86.10
2018-08-20T20:30:43.442Z,86.40
2018-08-20T20:35:38.046Z,87.20
2018-08-20T20:40:32.588Z,87.80
2018-08-20T20:45:27.146Z,88.20
2018-08-20T20:50:21.820Z,88.80
2018-08-20T20:55:16.377Z,89.80
2018-08-20T21:00:11.393Z,90.20
2018-08-20T21:05:10.556Z,90.60
2018-08-20T21:10:06.121Z,90.70
2018-08-20T21:15:00.773Z,90.80
2018-08-20T21:19:55.316Z,91.10
2018-08-20T21:24:49.834Z,91.30
2018-08-20T21:29:44.337Z,91.10
2018-08-20T21:34:41.453Z,91.00
2018-08-20T21:39:36.116Z,91.30
2018-08-20T21:44:30.722Z,91.40
2018-08-20T21:49:25.267Z,91.70
2018-08-20T21:54:25.785Z,92.10
2018-08-20T21:59:20.343Z,92.10
2018-08-20T22:04:20.044Z,92.30
2018-08-20T22:09:14.949Z,92.50
2018-08-20T22:14:09.479Z,92.60
2018-08-20T22:19:04.005Z,92.90
2018-08-20T22:24:00.568Z,93.10
2018-08-20T22:28:55.124Z,93.30
2018-08-20T22:33:58.925Z,93.40
2018-08-20T22:38:58.857Z,93.90
2018-08-20T22:43:53.375Z,94.30
2018-08-20T22:48:52.532Z,94.70
2018-08-20T22:53:49.944Z,94.90
2018-08-20T22:58:44.476Z,95.10
2018-08-20T23:03:38.989Z,95.20
2018-08-20T23:08:33.609Z,95.50
2018-08-20T23:13:28.366Z,95.50
2018-08-20T23:18:22.864Z,95.50
2018-08-20T23:23:22.537Z,95.70
2018-08-20T23:28:17.064Z,96.10
2018-08-20T23:33:11.573Z,96.30
2018-08-20T23:38:06.076Z,96.30
2018-08-20T23:43:00.647Z,96.70
2018-08-20T23:47:55.180Z,96.80
2018-08-20T23:52:49.688Z,97.30
2018-08-20T23:57:44.180Z,97.30
